createdAt,value
2023-01-06T00:01:13.391Z,13.00
2023-01-06T00:03:41.347Z,12.96
2023-01-06T00:06:12.703Z,12.97
2023-01-06T00:08:40.696Z,12.84
2023-01-06T00:11:08.939Z,12.85
2023-01-06T00:13:36.868Z,12.84
2023-01-06T00:16:06.393Z,12.89
2023-01-06T00:18:35.772Z,12.97
2023-01-06T00:21:03.809Z,12.87
2023-01-06T00:23:31.815Z,12.86
2023-01-06T00:25:59.817Z,12.78
2023-01-06T00:28:27.804Z,12.76
2023-01-06T00:30:55.821Z,12.70
2023-01-06T00:33:23.839Z,12.50
2023-01-06T00:35:53.195Z,12.39
2023-01-06T00:38:21.150Z,12.30
2023-01-06T00:40:49.065Z,12.25
2023-01-06T00:43:17.018Z,12.22
2023-01-06T00:45:44.976Z,12.18
2023-01-06T00:48:12.926Z,12.12
2023-01-06T00:50:40.840Z,12.01
2023-01-06T00:53:10.210Z,11.93
2023-01-06T00:55:38.175Z,11.80
2023-01-06T00:58:06.156Z,11.69
2023-01-06T01:00:34.171Z,11.62
2023-01-06T01:03:02.190Z,11.56
2023-01-06T01:05:30.202Z,11.60
2023-01-06T01:07:58.137Z,11.43
2023-01-06T01:10:27.435Z,11.34
2023-01-06T01:12:55.447Z,11.33
2023-01-06T01:15:23.401Z,11.21
2023-01-06T01:17:51.330Z,11.17
2023-01-06T01:20:19.286Z,11.17
2023-01-06T01:22:47.194Z,11.13
2023-01-06T01:25:15.308Z,11.04
2023-01-06T01:27:44.636Z,10.94
2023-01-06T01:30:13.098Z,10.97
2023-01-06T01:32:41.057Z,10.91
2023-01-06T01:35:09.570Z,10.87
2023-01-06T01:37:37.498Z,10.88
2023-01-06T01:40:06.735Z,10.94
2023-01-06T01:42:34.634Z,10.80
2023-01-06T01:45:05.817Z,10.78
2023-01-06T01:47:46.065Z,10.75
2023-01-06T01:50:18.616Z,10.80
2023-01-06T01:52:47.011Z,10.69
2023-01-06T01:55:14.913Z,10.64
2023-01-06T01:57:45.915Z,10.66
2023-01-06T02:00:15.726Z,10.68
2023-01-06T02:02:43.930Z,10.70
2023-01-06T02:05:12.387Z,10.63
2023-01-06T02:07:40.353Z,10.61
2023-01-06T02:10:11.974Z,10.62
2023-01-06T02:12:40.104Z,10.53
2023-01-06T02:15:17.896Z,10.57
2023-01-06T02:17:58.543Z,10.64
2023-01-06T02:20:36.815Z,10.67
2023-01-06T02:23:46.358Z,10.68
2023-01-06T02:26:56.332Z,10.60
2023-01-06T02:29:53.789Z,10.62
2023-01-06T02:32:28.011Z,10.55
2023-01-06T02:35:01.806Z,10.61
2023-01-06T02:37:37.491Z,10.62
2023-01-06T02:40:14.970Z,10.62
2023-01-06T02:42:46.236Z,10.66
2023-01-06T02:45:19.529Z,10.61
2023-01-06T02:47:52.074Z,10.65
2023-01-06T02:50:22.688Z,10.55
2023-01-06T02:52:56.091Z,10.56
2023-01-06T02:55:25.427Z,10.60
2023-01-06T02:57:54.658Z,10.43
2023-01-06T03:00:24.193Z,10.52
2023-01-06T03:02:55.767Z,10.59
2023-01-06T03:05:23.691Z,10.60
2023-01-06T03:07:51.651Z,10.58
2023-01-06T03:10:20.371Z,10.53
2023-01-06T03:12:50.979Z,10.56
2023-01-06T03:15:18.931Z,10.56
2023-01-06T03:17:46.897Z,10.53
2023-01-06T03:20:16.367Z,10.50
2023-01-06T03:22:44.293Z,10.42
2023-01-06T03:25:12.520Z,10.34
2023-01-06T03:27:40.514Z,10.37
2023-01-06T03:30:10.419Z,10.37
2023-01-06T03:32:40.937Z,10.33
2023-01-06T03:35:24.039Z,10.39
2023-01-06T03:37:54.749Z,10.36
2023-01-06T03:40:30.215Z,10.21
2023-01-06T03:43:16.342Z,10.19
2023-01-06T03:45:52.981Z,10.18
2023-01-06T03:48:24.075Z,10.27
2023-01-06T03:50:54.713Z,10.40
2023-01-06T03:53:27.047Z,10.30
2023-01-06T03:55:58.355Z,10.23
2023-01-06T03:58:26.536Z,10.12
2023-01-06T04:00:54.586Z,10.00
2023-01-06T04:03:22.592Z,10.12
2023-01-06T04:05:50.546Z,10.11
2023-01-06T04:08:19.879Z,10.14
2023-01-06T04:10:47.784Z,10.11
2023-01-06T04:13:14.773Z,10.05
2023-01-06T04:15:42.903Z,9.94
2023-01-06T04:18:10.863Z,10.08
2023-01-06T04:20:38.840Z,10.03
2023-01-06T04:23:06.819Z,9.98
2023-01-06T04:25:36.178Z,9.91
2023-01-06T04:28:04.181Z,9.79
2023-01-06T04:30:32.117Z,9.80
2023-01-06T04:33:00.026Z,9.83
2023-01-06T04:35:27.938Z,9.74
2023-01-06T04:37:55.865Z,9.64
2023-01-06T04:40:23.821Z,9.63
2023-01-06T04:43:05.178Z,9.57
2023-01-06T04:45:33.645Z,9.51
2023-01-06T04:48:01.592Z,9.38
2023-01-06T04:50:29.512Z,9.31
2023-01-06T04:52:57.497Z,9.32
2023-01-06T04:55:25.442Z,9.26
2023-01-06T04:57:54.773Z,9.32
2023-01-06T05:00:22.845Z,9.27
2023-01-06T05:02:50.763Z,9.19
2023-01-06T05:05:18.979Z,9.12
2023-01-06T05:07:47.046Z,9.11
2023-01-06T05:10:15.001Z,9.07
2023-01-06T05:12:43.245Z,8.99
2023-01-06T05:15:13.033Z,8.93
2023-01-06T05:17:40.988Z,8.93
2023-01-06T05:20:09.815Z,8.96
2023-01-06T05:22:37.729Z,8.87
2023-01-06T05:25:06.167Z,8.94
2023-01-06T05:27:34.162Z,8.94
2023-01-06T05:30:02.086Z,8.83
2023-01-06T05:32:31.425Z,8.72
2023-01-06T05:34:59.344Z,8.66
2023-01-06T05:37:27.290Z,8.60
2023-01-06T05:39:55.241Z,8.52
2023-01-06T05:42:23.206Z,8.39
2023-01-06T05:44:51.175Z,8.30
2023-01-06T05:47:19.179Z,8.16
2023-01-06T05:49:48.539Z,8.07
2023-01-06T05:52:16.530Z,8.12
2023-01-06T05:54:44.484Z,8.11
2023-01-06T05:57:12.400Z,8.11
2023-01-06T05:59:40.335Z,8.14
2023-01-06T06:02:08.303Z,8.17
2023-01-06T06:04:36.315Z,8.36
2023-01-06T06:07:05.623Z,8.40
2023-01-06T06:09:33.590Z,8.46
2023-01-06T06:12:01.537Z,8.41
2023-01-06T06:14:29.513Z,8.40
2023-01-06T06:16:57.469Z,8.39
2023-01-06T06:19:25.478Z,8.41
2023-01-06T06:21:53.885Z,8.42
2023-01-06T06:24:23.165Z,8.50
2023-01-06T06:26:51.112Z,8.58
2023-01-06T06:29:19.090Z,8.68
2023-01-06T06:31:47.035Z,8.91
2023-01-06T06:34:15.752Z,9.14
2023-01-06T06:36:43.724Z,9.20
2023-01-06T06:39:11.660Z,9.40
2023-01-06T06:41:40.978Z,9.80
2023-01-06T06:44:09.412Z,9.78
2023-01-06T06:46:37.348Z,9.93
2023-01-06T06:49:05.319Z,10.02
2023-01-06T06:51:33.329Z,10.11
2023-01-06T06:54:01.259Z,10.28
2023-01-06T06:56:29.230Z,10.40
2023-01-06T06:58:58.617Z,10.58
2023-01-06T07:01:27.941Z,10.58
2023-01-06T07:03:55.906Z,10.67
2023-01-06T07:06:26.112Z,10.71
2023-01-06T07:08:55.200Z,10.78
2023-01-06T07:11:23.116Z,10.91
2023-01-06T07:13:51.037Z,10.99
2023-01-06T07:16:23.188Z,11.07
2023-01-06T07:18:51.175Z,11.11
2023-01-06T07:21:19.169Z,11.28
2023-01-06T07:23:47.136Z,11.18
2023-01-06T07:26:15.768Z,11.32
2023-01-06T07:28:43.736Z,11.37
2023-01-06T07:31:11.775Z,11.42
2023-01-06T07:33:41.110Z,11.47
2023-01-06T07:36:10.119Z,11.55
2023-01-06T07:38:38.039Z,11.74
2023-01-06T07:41:06.172Z,11.75
2023-01-06T07:43:34.137Z,11.82
2023-01-06T07:46:02.164Z,11.87
2023-01-06T07:48:30.162Z,11.92
2023-01-06T07:51:00.314Z,12.06
2023-01-06T07:53:28.581Z,12.06
2023-01-06T07:55:56.562Z,12.15
2023-01-06T07:58:25.035Z,12.15
2023-01-06T08:00:53.004Z,12.18
2023-01-06T08:03:21.002Z,12.23
2023-01-06T08:05:48.993Z,12.28
2023-01-06T08:08:18.342Z,12.34
2023-01-06T08:10:46.316Z,12.38
2023-01-06T08:13:14.322Z,12.52
2023-01-06T08:15:42.379Z,12.66
2023-01-06T08:18:10.378Z,12.64
2023-01-06T08:20:38.328Z,12.67
2023-01-06T08:23:06.265Z,12.80
2023-01-06T08:25:35.565Z,12.79
2023-01-06T08:28:03.528Z,12.74
2023-01-06T08:30:31.577Z,12.77
2023-01-06T08:32:59.566Z,12.90
2023-01-06T08:35:27.788Z,13.04
2023-01-06T08:37:55.786Z,13.03
2023-01-06T08:40:23.757Z,13.09
2023-01-06T08:42:53.102Z,13.05
2023-01-06T08:45:21.024Z,13.20
2023-01-06T08:47:48.999Z,13.28
2023-01-06T08:50:17.050Z,13.39
2023-01-06T08:52:44.985Z,13.43
2023-01-06T08:55:12.970Z,13.61
2023-01-06T08:57:40.937Z,13.55
2023-01-06T09:00:11.701Z,13.53
2023-01-06T09:02:39.687Z,13.83
2023-01-06T09:05:08.370Z,14.03
2023-01-06T09:07:36.341Z,14.35
2023-01-06T09:10:04.374Z,14.55
2023-01-06T09:12:32.339Z,14.67
2023-01-06T09:15:00.278Z,14.84
2023-01-06T09:17:29.602Z,14.76
2023-01-06T09:19:57.539Z,14.52
2023-01-06T09:22:25.535Z,14.29
2023-01-06T09:24:53.451Z,14.20
2023-01-06T09:27:22.845Z,14.27
2023-01-06T09:29:51.342Z,14.30
2023-01-06T09:32:19.297Z,14.69
2023-01-06T09:34:48.647Z,14.74
2023-01-06T09:37:16.821Z,14.93
2023-01-06T09:39:44.765Z,15.10
2023-01-06T09:42:33.979Z,14.83
2023-01-06T09:45:03.310Z,14.55
2023-01-06T09:47:32.236Z,14.30
2023-01-06T09:50:04.120Z,14.04
2023-01-06T09:52:34.939Z,13.85
2023-01-06T09:55:05.171Z,13.90
2023-01-06T09:57:35.481Z,14.07
2023-01-06T10:00:04.949Z,14.01
2023-01-06T10:02:36.151Z,13.94
2023-01-06T10:05:18.818Z,13.79
2023-01-06T10:07:47.928Z,13.89
2023-01-06T10:10:21.902Z,13.95
2023-01-06T10:12:56.869Z,14.15
2023-01-06T10:15:30.181Z,14.11
2023-01-06T10:18:07.151Z,13.92
2023-01-06T10:20:53.673Z,14.01
2023-01-06T10:23:29.512Z,14.13
2023-01-06T10:26:00.786Z,14.48
2023-01-06T10:28:30.406Z,14.71
2023-01-06T10:31:00.414Z,14.74
2023-01-06T10:33:29.229Z,14.86
2023-01-06T10:35:58.780Z,14.84
2023-01-06T10:38:28.485Z,14.60
2023-01-06T10:40:56.710Z,14.36
2023-01-06T10:43:24.682Z,14.67
2023-01-06T10:45:53.931Z,15.30
2023-01-06T10:48:23.949Z,15.20
2023-01-06T10:50:51.988Z,15.01
2023-01-06T10:53:21.284Z,15.20
2023-01-06T10:55:50.733Z,14.85
2023-01-06T10:58:25.998Z,14.40
2023-01-06T11:01:01.651Z,14.74
2023-01-06T11:03:34.589Z,15.61
2023-01-06T11:06:16.479Z,15.49
2023-01-06T11:08:45.826Z,15.39
2023-01-06T11:11:27.156Z,15.03
2023-01-06T11:13:57.318Z,14.64
2023-01-06T11:16:27.155Z,14.71
2023-01-06T11:18:55.715Z,15.09
2023-01-06T11:21:23.668Z,15.25
2023-01-06T11:23:52.971Z,15.40
2023-01-06T11:26:22.236Z,15.80
2023-01-06T11:28:50.762Z,15.75
2023-01-06T11:31:20.931Z,16.08
2023-01-06T11:33:50.606Z,15.59
2023-01-06T11:36:18.663Z,15.85
2023-01-06T11:38:47.945Z,16.28
2023-01-06T11:41:24.233Z,16.18
2023-01-06T11:43:53.052Z,15.46
2023-01-06T11:46:22.407Z,15.43
2023-01-06T11:48:51.087Z,15.38
2023-01-06T11:51:31.297Z,15.25
2023-01-06T11:54:01.528Z,15.05
2023-01-06T11:56:30.879Z,14.93
2023-01-06T11:59:03.436Z,14.82
2023-01-06T12:01:35.841Z,14.57
2023-01-06T12:04:08.980Z,14.50
2023-01-06T12:06:39.788Z,14.20
2023-01-06T12:09:12.018Z,14.24
2023-01-06T12:11:45.339Z,14.10
2023-01-06T12:14:27.503Z,14.03
2023-01-06T12:17:01.587Z,13.98
2023-01-06T12:19:33.935Z,13.92
2023-01-06T12:22:01.848Z,13.92
2023-01-06T12:24:29.842Z,13.90
2023-01-06T12:26:59.197Z,13.94
2023-01-06T12:29:27.159Z,13.95
2023-01-06T12:32:00.190Z,13.96
2023-01-06T12:34:32.088Z,13.97
2023-01-06T12:37:05.086Z,13.92
2023-01-06T12:39:37.209Z,13.95
2023-01-06T12:42:08.852Z,13.88
2023-01-06T12:44:41.246Z,13.86
2023-01-06T12:47:13.443Z,13.82
2023-01-06T12:49:42.954Z,13.68
2023-01-06T12:52:12.887Z,13.73
2023-01-06T12:54:40.824Z,13.61
2023-01-06T12:57:20.288Z,13.63
2023-01-06T12:59:55.107Z,13.62
2023-01-06T13:02:34.927Z,13.73
2023-01-06T13:05:14.156Z,13.73
2023-01-06T13:07:46.472Z,13.70
2023-01-06T13:10:19.580Z,13.72
2023-01-06T13:12:53.161Z,13.60
2023-01-06T13:15:23.007Z,13.45
2023-01-06T13:17:55.343Z,13.31
2023-01-06T13:20:25.091Z,13.25
2023-01-06T13:22:58.463Z,13.16
2023-01-06T13:25:50.552Z,13.13
2023-01-06T13:28:23.632Z,13.09
2023-01-06T13:31:18.311Z,13.10
2023-01-06T13:34:28.256Z,13.02
2023-01-06T13:37:12.721Z,12.92
2023-01-06T13:39:41.054Z,12.84
2023-01-06T13:42:08.960Z,12.84
2023-01-06T13:44:38.973Z,12.81
2023-01-06T13:47:08.127Z,12.77
2023-01-06T13:49:36.525Z,12.76
2023-01-06T13:52:04.937Z,12.75
2023-01-06T13:55:02.582Z,12.59
2023-01-06T13:57:38.947Z,12.51
2023-01-06T14:00:17.153Z,12.35
2023-01-06T14:03:04.245Z,12.22
2023-01-06T14:05:54.117Z,12.10
2023-01-06T14:08:22.249Z,12.00
2023-01-06T14:10:55.814Z,11.93
2023-01-06T14:13:24.759Z,11.90
2023-01-06T14:15:56.393Z,11.75
2023-01-06T14:18:32.245Z,11.71
2023-01-06T14:21:02.043Z,11.68
2023-01-06T14:23:30.044Z,11.51
2023-01-06T14:25:57.994Z,11.59
2023-01-06T14:28:27.825Z,11.38
2023-01-06T14:31:28.839Z,11.39
2023-01-06T14:33:58.265Z,11.27
2023-01-06T14:36:26.242Z,11.17
2023-01-06T14:38:57.478Z,11.07
2023-01-06T14:41:27.592Z,10.96
2023-01-06T14:43:56.176Z,10.90
2023-01-06T14:46:26.585Z,10.84
2023-01-06T14:48:56.858Z,10.72
2023-01-06T14:51:26.204Z,10.63
2023-01-06T14:53:57.978Z,10.60
2023-01-06T14:56:26.540Z,10.52
2023-01-06T14:59:04.216Z,10.58
2023-01-06T15:01:33.632Z,10.50
2023-01-06T15:04:03.007Z,10.53
2023-01-06T15:06:33.054Z,10.40
2023-01-06T15:09:14.212Z,10.32
2023-01-06T15:11:42.488Z,10.36
2023-01-06T15:14:25.591Z,10.34
2023-01-06T15:16:53.569Z,10.30
2023-01-06T15:19:21.556Z,10.24
2023-01-06T15:21:50.989Z,10.15
2023-01-06T15:24:20.776Z,10.15
2023-01-06T15:26:49.139Z,10.13
2023-01-06T15:29:17.659Z,10.08
2023-01-06T15:31:45.648Z,10.06
2023-01-06T15:34:15.226Z,9.94
2023-01-06T15:36:43.518Z,9.97
2023-01-06T15:39:14.093Z,10.02
2023-01-06T15:41:42.122Z,10.00
2023-01-06T15:44:24.239Z,10.05
2023-01-06T15:46:52.604Z,10.11
2023-01-06T15:49:27.636Z,10.06
2023-01-06T15:51:56.988Z,9.99
2023-01-06T15:54:27.586Z,10.03
2023-01-06T15:56:55.765Z,10.02
2023-01-06T15:59:24.927Z,10.05
2023-01-06T16:01:54.229Z,9.99
2023-01-06T16:04:23.346Z,9.92
2023-01-06T16:06:51.351Z,9.87
2023-01-06T16:09:30.784Z,9.82
2023-01-06T16:11:59.765Z,9.81
2023-01-06T16:14:29.716Z,9.75
2023-01-06T16:17:08.867Z,9.74
2023-01-06T16:19:38.221Z,9.62
2023-01-06T16:22:09.964Z,9.76
2023-01-06T16:24:39.304Z,9.75
2023-01-06T16:27:07.218Z,9.69
2023-01-06T16:29:35.945Z,9.66
2023-01-06T16:32:21.908Z,9.58
2023-01-06T16:34:51.135Z,9.51
2023-01-06T16:37:19.052Z,9.52
2023-01-06T16:39:48.348Z,9.49
2023-01-06T16:42:41.063Z,9.52
2023-01-06T16:45:13.473Z,9.54
2023-01-06T16:47:41.671Z,9.57
2023-01-06T16:50:15.598Z,9.60
2023-01-06T16:52:43.779Z,9.52
2023-01-06T16:55:15.352Z,9.48
2023-01-06T16:57:43.296Z,9.49
2023-01-06T17:00:15.306Z,9.43
2023-01-06T17:02:43.580Z,9.38
2023-01-06T17:05:21.392Z,9.32
2023-01-06T17:07:49.376Z,9.32
2023-01-06T17:10:20.884Z,9.33
2023-01-06T17:13:14.452Z,9.37
2023-01-06T17:15:42.699Z,9.30
2023-01-06T17:18:23.039Z,9.29
2023-01-06T17:20:50.976Z,9.18
2023-01-06T17:23:18.934Z,9.14
2023-01-06T17:25:48.313Z,9.13
2023-01-06T17:28:21.057Z,9.16
2023-01-06T17:30:49.436Z,9.07
2023-01-06T17:33:18.327Z,9.02
2023-01-06T17:35:48.772Z,8.96
2023-01-06T17:38:20.152Z,9.02
2023-01-06T17:40:49.560Z,9.01
2023-01-06T17:43:23.833Z,8.96
2023-01-06T17:45:51.844Z,8.97
2023-01-06T17:48:19.776Z,8.98
2023-01-06T17:50:49.263Z,9.00
2023-01-06T17:53:35.607Z,8.97
2023-01-06T17:56:05.968Z,8.93
2023-01-06T17:58:34.959Z,8.90
2023-01-06T18:01:03.019Z,8.88
2023-01-06T18:03:33.030Z,8.85
2023-01-06T18:06:18.437Z,8.89
2023-01-06T18:08:46.917Z,8.92
2023-01-06T18:11:29.987Z,8.84
2023-01-06T18:14:02.787Z,8.81
2023-01-06T18:16:32.017Z,8.84
2023-01-06T18:19:05.543Z,8.77
2023-01-06T18:21:39.182Z,8.66
2023-01-06T18:24:13.784Z,8.61
2023-01-06T18:26:45.314Z,8.55
2023-01-06T18:29:15.454Z,8.52
2023-01-06T18:31:44.233Z,8.50
2023-01-06T18:34:23.148Z,8.52
2023-01-06T18:36:51.132Z,8.67
2023-01-06T18:39:19.642Z,8.60
2023-01-06T18:41:48.988Z,8.52
2023-01-06T18:44:17.316Z,8.52
2023-01-06T18:46:45.439Z,8.42
2023-01-06T18:49:15.089Z,8.27
2023-01-06T18:51:43.169Z,8.36
2023-01-06T18:54:14.190Z,8.25
2023-01-06T18:56:42.167Z,8.27
2023-01-06T18:59:14.268Z,8.18
2023-01-06T19:01:43.151Z,8.20
2023-01-06T19:04:15.567Z,8.11
2023-01-06T19:06:45.074Z,8.14
2023-01-06T19:09:22.578Z,8.08
2023-01-06T19:11:56.010Z,7.99
2023-01-06T19:14:25.397Z,8.04
2023-01-06T19:16:54.681Z,8.07
2023-01-06T19:19:30.371Z,8.06
2023-01-06T19:22:20.508Z,7.98
2023-01-06T19:24:50.530Z,7.87
2023-01-06T19:27:30.600Z,7.93
2023-01-06T19:30:39.627Z,7.83
2023-01-06T19:33:38.832Z,7.73
2023-01-06T19:36:43.415Z,7.61
2023-01-06T19:39:33.132Z,7.49
2023-01-06T19:42:10.468Z,7.37
2023-01-06T19:44:38.723Z,7.32
2023-01-06T19:47:14.599Z,7.24
2023-01-06T19:49:45.252Z,7.15
2023-01-06T19:52:24.615Z,7.12
2023-01-06T19:54:52.599Z,7.07
2023-01-06T19:57:25.089Z,7.02
2023-01-06T19:59:53.084Z,7.04
2023-01-06T20:02:27.148Z,7.05
2023-01-06T20:04:55.150Z,7.03
2023-01-06T20:07:23.119Z,6.99
2023-01-06T20:09:51.048Z,6.91
2023-01-06T20:12:18.987Z,6.84
2023-01-06T20:14:46.948Z,6.81
2023-01-06T20:17:16.585Z,6.81
2023-01-06T20:19:45.886Z,6.81
2023-01-06T20:22:13.841Z,6.84
2023-01-06T20:24:41.781Z,6.81
2023-01-06T20:27:09.749Z,6.85
2023-01-06T20:29:37.677Z,6.87
2023-01-06T20:32:06.167Z,6.85
2023-01-06T20:34:34.239Z,6.80
2023-01-06T20:37:03.613Z,6.85
2023-01-06T20:39:31.627Z,6.83
2023-01-06T20:42:00.346Z,6.86
2023-01-06T20:44:28.268Z,6.84
2023-01-06T20:46:56.250Z,6.83
2023-01-06T20:49:24.213Z,6.83
2023-01-06T20:51:52.795Z,6.81
2023-01-06T20:54:22.142Z,6.79
2023-01-06T20:56:50.126Z,6.78
2023-01-06T20:59:18.063Z,6.75
2023-01-06T21:01:46.062Z,6.71
2023-01-06T21:04:14.069Z,6.70
2023-01-06T21:06:42.006Z,6.68
2023-01-06T21:09:09.976Z,6.66
2023-01-06T21:11:39.283Z,6.67
2023-01-06T21:14:07.911Z,6.71
2023-01-06T21:16:35.997Z,6.70
2023-01-06T21:19:04.049Z,6.70
2023-01-06T21:21:31.965Z,6.69
2023-01-06T21:24:00.428Z,6.70
2023-01-06T21:26:28.361Z,6.75
2023-01-06T21:28:57.685Z,6.78
2023-01-06T21:31:25.653Z,6.73
2023-01-06T21:33:53.594Z,6.69
2023-01-06T21:36:21.527Z,6.68
2023-01-06T21:38:49.504Z,6.67
2023-01-06T21:41:34.567Z,6.65
2023-01-06T21:44:03.891Z,6.52
2023-01-06T21:46:32.288Z,6.48
2023-01-06T21:49:00.298Z,6.45
2023-01-06T21:51:28.306Z,6.42
2023-01-06T21:53:56.303Z,6.40
2023-01-06T21:56:24.288Z,6.33
2023-01-06T21:58:52.205Z,6.28
2023-01-06T22:01:21.678Z,6.22
2023-01-06T22:03:49.699Z,6.05
2023-01-06T22:06:19.424Z,5.95
2023-01-06T22:08:47.485Z,5.96
2023-01-06T22:11:15.528Z,5.97
2023-01-06T22:13:43.483Z,6.02
2023-01-06T22:16:11.438Z,6.01
2023-01-06T22:18:40.819Z,5.83
2023-01-06T22:21:08.785Z,5.91
2023-01-06T22:23:36.769Z,5.82
2023-01-06T22:26:04.765Z,5.76
2023-01-06T22:28:32.695Z,5.75
2023-01-06T22:31:00.762Z,5.71
2023-01-06T22:33:28.762Z,5.69
2023-01-06T22:35:59.136Z,5.60
2023-01-06T22:38:27.058Z,5.53
2023-01-06T22:40:54.991Z,5.49
2023-01-06T22:43:23.355Z,5.43
2023-01-06T22:45:54.118Z,5.39
2023-01-06T22:48:22.145Z,5.33
2023-01-06T22:50:58.330Z,5.29
2023-01-06T22:53:26.328Z,5.29
2023-01-06T22:55:58.717Z,5.28
2023-01-06T22:58:26.684Z,5.24
2023-01-06T23:00:54.659Z,5.29
2023-01-06T23:03:22.853Z,5.28
2023-01-06T23:05:59.012Z,5.20
2023-01-06T23:08:27.180Z,5.30
2023-01-06T23:10:59.840Z,5.27
2023-01-06T23:13:27.794Z,5.23
2023-01-06T23:16:03.061Z,5.21
2023-01-06T23:18:31.456Z,5.18
2023-01-06T23:21:02.481Z,5.16
2023-01-06T23:23:30.564Z,5.14
2023-01-06T23:26:02.732Z,5.18
2023-01-06T23:28:30.714Z,5.17
2023-01-06T23:31:03.205Z,5.13
2023-01-06T23:33:31.127Z,5.09
2023-01-06T23:36:03.008Z,5.04
2023-01-06T23:38:31.108Z,4.99
2023-01-06T23:41:03.454Z,4.90
2023-01-06T23:43:31.923Z,4.88
2023-01-06T23:46:02.804Z,4.86
2023-01-06T23:48:31.412Z,4.86
2023-01-06T23:50:59.335Z,4.86
2023-01-06T23:53:29.015Z,4.83
2023-01-06T23:55:57.820Z,4.85
2023-01-06T23:58:25.900Z,4.82
